sensor_id;sensor_type;location;lat;lon;timestamp;pressure;altitude;pressure_sealevel;temperature;humidity
74678;BME280;67324;56.326;43.982;2023-06-04T00:01:34;100407.94;;;21.64;49.80
74678;BME280;67324;56.326;43.982;2023-06-04T00:04:03;100407.94;;;21.64;49.95
74678;BME280;67324;56.326;43.982;2023-06-04T00:06:29;100399.38;;;21.62;49.86
74678;BME280;67324;56.326;43.982;2023-06-04T00:08:54;100410.72;;;21.63;49.97
74678;BME280;67324;56.326;43.982;2023-06-04T00:11:20;100432.78;;;21.62;49.80
74678;BME280;67324;56.326;43.982;2023-06-04T00:13:46;100426.50;;;21.63;49.81
74678;BME280;67324;56.326;43.982;2023-06-04T00:16:12;100412.69;;;21.61;49.96
74678;BME280;67324;56.326;43.982;2023-06-04T00:18:38;100416.13;;;21.61;49.89
74678;BME280;67324;56.326;43.982;2023-06-04T00:21:03;100440.00;;;21.60;49.87
74678;BME280;67324;56.326;43.982;2023-06-04T00:23:47;100444.25;;;21.61;49.92
74678;BME280;67324;56.326;43.982;2023-06-04T00:26:13;100449.53;;;21.61;49.86
74678;BME280;67324;56.326;43.982;2023-06-04T00:28:43;100447.88;;;21.60;49.91
74678;BME280;67324;56.326;43.982;2023-06-04T00:31:08;100442.63;;;21.60;49.88
74678;BME280;67324;56.326;43.982;2023-06-04T00:33:35;100454.97;;;21.59;49.83
74678;BME280;67324;56.326;43.982;2023-06-04T00:36:01;100464.66;;;21.59;49.87
74678;BME280;67324;56.326;43.982;2023-06-04T00:38:26;100463.81;;;21.58;49.90
74678;BME280;67324;56.326;43.982;2023-06-04T00:41:10;100469.09;;;21.58;49.85
74678;BME280;67324;56.326;43.982;2023-06-04T00:43:36;100465.66;;;21.58;49.90
74678;BME280;67324;56.326;43.982;2023-06-04T00:46:02;100466.63;;;21.57;49.78
74678;BME280;67324;56.326;43.982;2023-06-04T00:48:31;100485.88;;;21.57;49.84
74678;BME280;67324;56.326;43.982;2023-06-04T00:50:56;100492.09;;;21.56;49.84
74678;BME280;67324;56.326;43.982;2023-06-04T00:53:23;100486.03;;;21.56;49.89
74678;BME280;67324;56.326;43.982;2023-06-04T00:55:49;100487.69;;;21.57;49.92
74678;BME280;67324;56.326;43.982;2023-06-04T00:58:15;100492.09;;;21.56;49.95
74678;BME280;67324;56.326;43.982;2023-06-04T01:00:41;100484.38;;;21.55;49.93
74678;BME280;67324;56.326;43.982;2023-06-04T01:03:10;100493.09;;;21.55;50.01
74678;BME280;67324;56.326;43.982;2023-06-04T01:08:48;100497.53;;;21.55;49.97
74678;BME280;67324;56.326;43.982;2023-06-04T01:11:14;100485.34;;;21.54;49.86
74678;BME280;67324;56.326;43.982;2023-06-04T01:13:40;100487.16;;;21.53;49.98
74678;BME280;67324;56.326;43.982;2023-06-04T01:16:06;100494.25;;;21.53;50.04
74678;BME280;67324;56.326;43.982;2023-06-04T01:18:32;100510.03;;;21.53;49.95
74678;BME280;67324;56.326;43.982;2023-06-04T01:21:02;100505.59;;;21.53;50.01
74678;BME280;67324;56.326;43.982;2023-06-04T01:23:51;100508.41;;;21.52;49.89
74678;BME280;67324;56.326;43.982;2023-06-04T01:26:30;100500.50;;;21.52;49.86
74678;BME280;67324;56.326;43.982;2023-06-04T01:28:56;100500.50;;;21.52;49.96
74678;BME280;67324;56.326;43.982;2023-06-04T01:31:22;100498.00;;;21.50;49.99
74678;BME280;67324;56.326;43.982;2023-06-04T01:33:51;100507.72;;;21.49;49.86
74678;BME280;67324;56.326;43.982;2023-06-04T01:36:18;100514.63;;;21.50;49.96
74678;BME280;67324;56.326;43.982;2023-06-04T01:38:43;100520.88;;;21.49;50.05
74678;BME280;67324;56.326;43.982;2023-06-04T01:41:10;100534.03;;;21.49;49.92
74678;BME280;67324;56.326;43.982;2023-06-04T01:43:36;100541.94;;;21.49;49.84
74678;BME280;67324;56.326;43.982;2023-06-04T01:46:02;100554.28;;;21.49;49.89
74678;BME280;67324;56.326;43.982;2023-06-04T01:48:29;100550.78;;;21.48;50.00
74678;BME280;67324;56.326;43.982;2023-06-04T01:50:55;100546.53;;;21.47;49.82
74678;BME280;67324;56.326;43.982;2023-06-04T01:53:21;100548.16;;;21.48;49.99
74678;BME280;67324;56.326;43.982;2023-06-04T01:55:47;100552.59;;;21.48;49.99
74678;BME280;67324;56.326;43.982;2023-06-04T01:58:15;100551.78;;;21.47;50.01
74678;BME280;67324;56.326;43.982;2023-06-04T02:01:02;100553.72;;;21.45;49.96
74678;BME280;67324;56.326;43.982;2023-06-04T02:03:29;100554.56;;;21.46;50.06
74678;BME280;67324;56.326;43.982;2023-06-04T02:06:02;100561.63;;;21.45;49.87
74678;BME280;67324;56.326;43.982;2023-06-04T02:08:28;100561.63;;;21.45;50.03
74678;BME280;67324;56.326;43.982;2023-06-04T02:10:55;100571.34;;;21.45;49.94
74678;BME280;67324;56.326;43.982;2023-06-04T02:13:21;100570.53;;;21.44;50.03
74678;BME280;67324;56.326;43.982;2023-06-04T02:15:47;100571.47;;;21.43;50.06
74678;BME280;67324;56.326;43.982;2023-06-04T02:18:14;100574.13;;;21.43;50.05
74678;BME280;67324;56.326;43.982;2023-06-04T02:21:01;100576.75;;;21.43;50.03
74678;BME280;67324;56.326;43.982;2023-06-04T02:23:27;100588.25;;;21.42;49.93
74678;BME280;67324;56.326;43.982;2023-06-04T02:25:53;100597.78;;;21.43;49.90
74678;BME280;67324;56.326;43.982;2023-06-04T02:28:18;100598.78;;;21.42;50.08
74678;BME280;67324;56.326;43.982;2023-06-04T02:30:47;100604.06;;;21.42;49.93
74678;BME280;67324;56.326;43.982;2023-06-04T02:33:13;100606.81;;;21.41;50.13
74678;BME280;67324;56.326;43.982;2023-06-04T02:35:39;100615.53;;;21.41;49.97
74678;BME280;67324;56.326;43.982;2023-06-04T02:38:05;100623.44;;;21.41;50.00
74678;BME280;67324;56.326;43.982;2023-06-04T02:40:49;100626.06;;;21.41;49.98
74678;BME280;67324;56.326;43.982;2023-06-04T02:43:15;100627.06;;;21.40;50.08
74678;BME280;67324;56.326;43.982;2023-06-04T02:45:41;100633.97;;;21.41;49.94
74678;BME280;67324;56.326;43.982;2023-06-04T02:48:06;100620.16;;;21.39;50.01
74678;BME280;67324;56.326;43.982;2023-06-04T02:50:32;100628.03;;;21.39;50.10
74678;BME280;67324;56.326;43.982;2023-06-04T02:52:58;100632.47;;;21.39;49.98
74678;BME280;67324;56.326;43.982;2023-06-04T02:55:23;100631.59;;;21.38;49.97
74678;BME280;67324;56.326;43.982;2023-06-04T02:57:50;100636.88;;;21.38;50.10
74678;BME280;67324;56.326;43.982;2023-06-04T03:00:18;100642.97;;;21.39;50.14
74678;BME280;67324;56.326;43.982;2023-06-04T03:02:45;100639.66;;;21.37;49.98
74678;BME280;67324;56.326;43.982;2023-06-04T03:05:12;100639.66;;;21.37;50.01
74678;BME280;67324;56.326;43.982;2023-06-04T03:07:39;100650.19;;;21.37;50.12
74678;BME280;67324;56.326;43.982;2023-06-04T03:10:06;100661.53;;;21.37;50.07
74678;BME280;67324;56.326;43.982;2023-06-04T03:12:32;100661.69;;;21.36;50.19
74678;BME280;67324;56.326;43.982;2023-06-04T03:14:58;100673.19;;;21.35;50.11
74678;BME280;67324;56.326;43.982;2023-06-04T03:17:25;100686.19;;;21.36;50.10
74678;BME280;67324;56.326;43.982;2023-06-04T03:19:51;100680.09;;;21.36;50.18
74678;BME280;67324;56.326;43.982;2023-06-04T03:22:17;100682.91;;;21.34;50.04
74678;BME280;67324;56.326;43.982;2023-06-04T03:24:43;100690.78;;;21.34;50.10
74678;BME280;67324;56.326;43.982;2023-06-04T03:27:10;100695.88;;;21.36;50.08
74678;BME280;67324;56.326;43.982;2023-06-04T03:29:39;100697.00;;;21.33;50.15
74678;BME280;67324;56.326;43.982;2023-06-04T03:32:06;100703.09;;;21.34;50.02
74678;BME280;67324;56.326;43.982;2023-06-04T03:34:32;100702.28;;;21.33;50.14
74678;BME280;67324;56.326;43.982;2023-06-04T03:36:58;100703.09;;;21.34;50.11
74678;BME280;67324;56.326;43.982;2023-06-04T03:39:25;100696.19;;;21.33;50.11
74678;BME280;67324;56.326;43.982;2023-06-04T03:41:53;100711.16;;;21.32;50.03
74678;BME280;67324;56.326;43.982;2023-06-04T03:44:21;100712.97;;;21.32;50.08
74678;BME280;67324;56.326;43.982;2023-06-04T03:46:47;100713.78;;;21.32;50.18
74678;BME280;67324;56.326;43.982;2023-06-04T03:49:13;100717.38;;;21.31;50.14
74678;BME280;67324;56.326;43.982;2023-06-04T03:51:41;100714.91;;;21.29;50.05
74678;BME280;67324;56.326;43.982;2023-06-04T03:54:08;100730.53;;;21.31;50.14
74678;BME280;67324;56.326;43.982;2023-06-04T03:56:34;100720.00;;;21.31;50.16
74678;BME280;67324;56.326;43.982;2023-06-04T03:59:01;100726.25;;;21.30;49.98
74678;BME280;67324;56.326;43.982;2023-06-04T04:01:27;100728.91;;;21.30;50.15
74678;BME280;67324;56.326;43.982;2023-06-04T04:03:55;100733.47;;;21.28;50.13
74678;BME280;67324;56.326;43.982;2023-06-04T04:06:21;100727.22;;;21.29;50.02
74678;BME280;67324;56.326;43.982;2023-06-04T04:08:46;100729.03;;;21.28;50.03
74678;BME280;67324;56.326;43.982;2023-06-04T04:11:32;100748.28;;;21.29;50.26
74678;BME280;67324;56.326;43.982;2023-06-04T04:13:58;100751.88;;;21.28;50.10
74678;BME280;67324;56.326;43.982;2023-06-04T04:16:24;100749.25;;;21.28;50.12
74678;BME280;67324;56.326;43.982;2023-06-04T04:18:51;100753.69;;;21.27;50.06
74678;BME280;67324;56.326;43.982;2023-06-04T04:21:36;100766.03;;;21.27;50.04
74678;BME280;67324;56.326;43.982;2023-06-04T04:24:23;100763.41;;;21.27;50.11
74678;BME280;67324;56.326;43.982;2023-06-04T04:26:50;100771.28;;;21.27;50.07
74678;BME280;67324;56.326;43.982;2023-06-04T04:29:22;100763.53;;;21.25;50.18
74678;BME280;67324;56.326;43.982;2023-06-04T04:31:50;100778.50;;;21.25;50.10
74678;BME280;67324;56.326;43.982;2023-06-04T04:34:18;100780.31;;;21.24;50.22
74678;BME280;67324;56.326;43.982;2023-06-04T04:36:47;100781.13;;;21.25;50.18
74678;BME280;67324;56.326;43.982;2023-06-04T04:39:22;100778.50;;;21.25;50.11
74678;BME280;67324;56.326;43.982;2023-06-04T04:42:06;100787.34;;;21.24;50.08
74678;BME280;67324;56.326;43.982;2023-06-04T04:44:32;100794.28;;;21.25;50.21
74678;BME280;67324;56.326;43.982;2023-06-04T04:46:58;100793.47;;;21.24;50.15
74678;BME280;67324;56.326;43.982;2023-06-04T04:49:23;100805.75;;;21.24;50.11
74678;BME280;67324;56.326;43.982;2023-06-04T04:51:49;100804.94;;;21.23;50.16
74678;BME280;67324;56.326;43.982;2023-06-04T04:54:16;100809.38;;;21.23;50.13
74678;BME280;67324;56.326;43.982;2023-06-04T04:56:41;100807.56;;;21.23;50.22
74678;BME280;67324;56.326;43.982;2023-06-04T04:59:07;100811.19;;;21.22;50.17
74678;BME280;67324;56.326;43.982;2023-06-04T05:01:33;100803.31;;;21.22;50.15
74678;BME280;67324;56.326;43.982;2023-06-04T05:04:00;100806.06;;;21.21;50.10
74678;BME280;67324;56.326;43.982;2023-06-04T05:06:26;100808.69;;;21.21;50.03
74678;BME280;67324;56.326;43.982;2023-06-04T05:08:51;100807.75;;;21.22;50.16
74678;BME280;67324;56.326;43.982;2023-06-04T05:11:18;100802.63;;;21.20;50.22
74678;BME280;67324;56.326;43.982;2023-06-04T05:13:45;100811.34;;;21.21;50.18
74678;BME280;67324;56.326;43.982;2023-06-04T05:16:29;100807.06;;;21.20;50.17
74678;BME280;67324;56.326;43.982;2023-06-04T05:18:56;100798.34;;;21.19;50.21
74678;BME280;67324;56.326;43.982;2023-06-04T05:21:25;100811.50;;;21.19;50.15
74678;BME280;67324;56.326;43.982;2023-06-04T05:23:59;100807.19;;;21.18;50.18
74678;BME280;67324;56.326;43.982;2023-06-04T05:26:29;100799.28;;;21.18;50.26
74678;BME280;67324;56.326;43.982;2023-06-04T05:28:59;100826.44;;;21.19;50.20
74678;BME280;67324;56.326;43.982;2023-06-04T05:31:29;100801.09;;;21.18;50.20
74678;BME280;67324;56.326;43.982;2023-06-04T05:33:59;100805.53;;;21.17;50.04
74678;BME280;67324;56.326;43.982;2023-06-04T05:36:29;100814.25;;;21.18;50.25
74678;BME280;67324;56.326;43.982;2023-06-04T05:39:13;100815.09;;;21.18;50.17
74678;BME280;67324;56.326;43.982;2023-06-04T05:42:05;100823.97;;;21.17;50.12
74678;BME280;67324;56.326;43.982;2023-06-04T05:44:32;100840.69;;;21.16;50.14
74678;BME280;67324;56.326;43.982;2023-06-04T05:46:58;100838.91;;;21.17;50.14
74678;BME280;67324;56.326;43.982;2023-06-04T05:49:24;100843.31;;;21.16;50.11
74678;BME280;67324;56.326;43.982;2023-06-04T05:51:51;100848.47;;;21.18;50.17
74678;BME280;67324;56.326;43.982;2023-06-04T05:54:17;100849.44;;;21.17;50.13
74678;BME280;67324;56.326;43.982;2023-06-04T05:56:43;100855.66;;;21.16;50.13
74678;BME280;67324;56.326;43.982;2023-06-04T05:59:09;100860.91;;;21.16;50.21
74678;BME280;67324;56.326;43.982;2023-06-04T06:01:35;100868.00;;;21.15;50.04
74678;BME280;67324;56.326;43.982;2023-06-04T06:04:02;100871.59;;;21.14;50.19
74678;BME280;67324;56.326;43.982;2023-06-04T06:06:29;100878.50;;;21.15;50.14
74678;BME280;67324;56.326;43.982;2023-06-04T06:09:13;100886.53;;;21.14;50.10
74678;BME280;67324;56.326;43.982;2023-06-04T06:11:39;100886.53;;;21.14;50.16
74678;BME280;67324;56.326;43.982;2023-06-04T06:14:04;100883.91;;;21.14;50.24
74678;BME280;67324;56.326;43.982;2023-06-04T06:16:30;100888.34;;;21.13;50.00
74678;BME280;67324;56.326;43.982;2023-06-04T06:18:57;100884.91;;;21.13;50.15
74678;BME280;67324;56.326;43.982;2023-06-04T06:21:23;100881.28;;;21.14;50.21
74678;BME280;67324;56.326;43.982;2023-06-04T06:23:48;100890.16;;;21.13;50.12
74678;BME280;67324;56.326;43.982;2023-06-04T06:26:15;100877.97;;;21.12;50.06
74678;BME280;67324;56.326;43.982;2023-06-04T06:28:46;100889.34;;;21.12;50.22
74678;BME280;67324;56.326;43.982;2023-06-04T06:31:13;100893.75;;;21.12;50.16
74678;BME280;67324;56.326;43.982;2023-06-04T06:33:38;100891.97;;;21.12;50.25
74678;BME280;67324;56.326;43.982;2023-06-04T06:36:12;100891.09;;;21.12;50.17
74678;BME280;67324;56.326;43.982;2023-06-04T06:38:38;100886.84;;;21.11;50.24
74678;BME280;67324;56.326;43.982;2023-06-04T06:41:04;100888.63;;;21.10;50.17
74678;BME280;67324;56.326;43.982;2023-06-04T06:43:30;100892.09;;;21.11;50.17
74678;BME280;67324;56.326;43.982;2023-06-04T06:45:57;100889.59;;;21.09;50.27
74678;BME280;67324;56.326;43.982;2023-06-04T06:48:23;100887.81;;;21.10;50.14
74678;BME280;67324;56.326;43.982;2023-06-04T06:50:48;100889.47;;;21.11;50.16
74678;BME280;67324;56.326;43.982;2023-06-04T06:53:14;100886.97;;;21.09;50.21
74678;BME280;67324;56.326;43.982;2023-06-04T06:55:40;100889.59;;;21.09;50.06
74678;BME280;67324;56.326;43.982;2023-06-04T06:58:05;100901.91;;;21.08;50.15
74678;BME280;67324;56.326;43.982;2023-06-04T07:00:31;100894.84;;;21.09;50.10
74678;BME280;67324;56.326;43.982;2023-06-04T07:02:57;100899.28;;;21.08;50.23
74678;BME280;67324;56.326;43.982;2023-06-04T07:05:22;100895.00;;;21.07;50.12
74678;BME280;67324;56.326;43.982;2023-06-04T07:07:48;100894.03;;;21.08;50.18
74678;BME280;67324;56.326;43.982;2023-06-04T07:10:13;100897.66;;;21.07;50.11
74678;BME280;67324;56.326;43.982;2023-06-04T07:12:40;100905.53;;;21.07;50.16
74678;BME280;67324;56.326;43.982;2023-06-04T07:15:06;100902.09;;;21.07;50.14
74678;BME280;67324;56.326;43.982;2023-06-04T07:17:32;100904.72;;;21.07;50.17
74678;BME280;67324;56.326;43.982;2023-06-04T07:19:57;100908.16;;;21.07;50.13
74678;BME280;67324;56.326;43.982;2023-06-04T07:22:23;100909.13;;;21.06;50.08
74678;BME280;67324;56.326;43.982;2023-06-04T07:25:07;100911.75;;;21.06;50.19
74678;BME280;67324;56.326;43.982;2023-06-04T07:27:34;100917.00;;;21.06;50.14
74678;BME280;67324;56.326;43.982;2023-06-04T07:29:59;100914.38;;;21.06;50.10
74678;BME280;67324;56.326;43.982;2023-06-04T07:32:25;100918.81;;;21.06;50.10
74678;BME280;67324;56.326;43.982;2023-06-04T07:34:51;100925.88;;;21.05;50.09
74678;BME280;67324;56.326;43.982;2023-06-04T07:37:16;100924.25;;;21.04;50.16
74678;BME280;67324;56.326;43.982;2023-06-04T07:39:42;100931.16;;;21.05;50.16
74678;BME280;67324;56.326;43.982;2023-06-04T07:42:07;100931.28;;;21.04;50.14
74678;BME280;67324;56.326;43.982;2023-06-04T07:44:33;100934.75;;;21.04;50.17
74678;BME280;67324;56.326;43.982;2023-06-04T07:46:59;100935.59;;;21.05;50.13
74678;BME280;67324;56.326;43.982;2023-06-04T07:49:25;100942.66;;;21.04;50.07
74678;BME280;67324;56.326;43.982;2023-06-04T07:51:50;100944.44;;;21.04;50.12
74678;BME280;67324;56.326;43.982;2023-06-04T07:54:16;100946.09;;;21.05;50.19
74678;BME280;67324;56.326;43.982;2023-06-04T07:56:42;100951.50;;;21.03;50.15
74678;BME280;67324;56.326;43.982;2023-06-04T07:59:07;100957.56;;;21.04;49.97
74678;BME280;67324;56.326;43.982;2023-06-04T08:01:33;100955.94;;;21.03;50.21
74678;BME280;67324;56.326;43.982;2023-06-04T08:03:59;100956.75;;;21.03;50.11
74678;BME280;67324;56.326;43.982;2023-06-04T08:06:25;100949.03;;;21.02;50.09
74678;BME280;67324;56.326;43.982;2023-06-04T08:09:10;100963.00;;;21.02;50.16
74678;BME280;67324;56.326;43.982;2023-06-04T08:11:36;100960.38;;;21.02;50.05
74678;BME280;67324;56.326;43.982;2023-06-04T08:14:02;100963.00;;;21.02;50.12
74678;BME280;67324;56.326;43.982;2023-06-04T08:16:28;100963.00;;;21.02;50.13
74678;BME280;67324;56.326;43.982;2023-06-04T08:19:14;100963.81;;;21.03;50.14
74678;BME280;67324;56.326;43.982;2023-06-04T08:21:44;100955.09;;;21.02;50.13
74678;BME280;67324;56.326;43.982;2023-06-04T08:24:31;100956.06;;;21.01;50.09
74678;BME280;67324;56.326;43.982;2023-06-04T08:27:11;100956.91;;;21.02;50.18
74678;BME280;67324;56.326;43.982;2023-06-04T08:29:42;100949.16;;;21.00;50.10
74678;BME280;67324;56.326;43.982;2023-06-04T08:32:11;100951.78;;;21.00;50.27
74678;BME280;67324;56.326;43.982;2023-06-04T08:34:47;100965.75;;;21.01;50.08
74678;BME280;67324;56.326;43.982;2023-06-04T08:37:13;100955.41;;;20.99;50.11
74678;BME280;67324;56.326;43.982;2023-06-04T08:39:39;100952.59;;;21.01;50.21
74678;BME280;67324;56.326;43.982;2023-06-04T08:42:06;100953.59;;;21.00;50.15
74678;BME280;67324;56.326;43.982;2023-06-04T08:44:53;100968.38;;;21.01;50.12
74678;BME280;67324;56.326;43.982;2023-06-04T08:47:19;100964.13;;;21.00;50.01
74678;BME280;67324;56.326;43.982;2023-06-04T08:49:48;100959.69;;;21.00;50.14
74678;BME280;67324;56.326;43.982;2023-06-04T08:52:33;100964.13;;;21.00;50.20
74678;BME280;67324;56.326;43.982;2023-06-04T08:54:58;100956.34;;;20.98;50.10
74678;BME280;67324;56.326;43.982;2023-06-04T08:57:24;100957.19;;;20.99;50.06
74678;BME280;67324;56.326;43.982;2023-06-04T08:59:50;100960.66;;;20.99;50.09
74678;BME280;67324;56.326;43.982;2023-06-04T09:02:15;100969.38;;;21.00;50.07
74678;BME280;67324;56.326;43.982;2023-06-04T09:04:59;100961.47;;;21.00;50.02
74678;BME280;67324;56.326;43.982;2023-06-04T09:07:27;100962.59;;;20.97;50.17
74678;BME280;67324;56.326;43.982;2023-06-04T09:09:53;100955.53;;;20.98;50.17
74678;BME280;67324;56.326;43.982;2023-06-04T09:12:23;100977.41;;;20.98;50.05
74678;BME280;67324;56.326;43.982;2023-06-04T09:14:49;100968.69;;;20.98;50.15
74678;BME280;67324;56.326;43.982;2023-06-04T09:17:24;100971.31;;;20.98;49.96
74678;BME280;67324;56.326;43.982;2023-06-04T09:19:51;100970.50;;;20.97;50.14
74678;BME280;67324;56.326;43.982;2023-06-04T09:22:17;100969.66;;;20.97;50.10
74678;BME280;67324;56.326;43.982;2023-06-04T09:24:43;100963.41;;;20.98;50.06
74678;BME280;67324;56.326;43.982;2023-06-04T09:27:15;100966.03;;;20.98;50.04
74678;BME280;67324;56.326;43.982;2023-06-04T09:29:55;100963.41;;;20.98;50.10
74678;BME280;67324;56.326;43.982;2023-06-04T09:32:25;100970.50;;;20.97;50.20
74678;BME280;67324;56.326;43.982;2023-06-04T09:34:52;100978.38;;;20.97;50.03
74678;BME280;67324;56.326;43.982;2023-06-04T09:37:18;100975.75;;;20.97;50.12
74678;BME280;67324;56.326;43.982;2023-06-04T09:40:02;100977.56;;;20.97;50.05
74678;BME280;67324;56.326;43.982;2023-06-04T09:42:30;100971.44;;;20.96;49.92
74678;BME280;67324;56.326;43.982;2023-06-04T09:44:56;100981.00;;;20.97;50.08
74678;BME280;67324;56.326;43.982;2023-06-04T09:47:23;100977.56;;;20.97;49.96
74678;BME280;67324;56.326;43.982;2023-06-04T09:49:49;100981.13;;;20.96;49.97
74678;BME280;67324;56.326;43.982;2023-06-04T09:52:16;100977.56;;;20.97;50.03
74678;BME280;67324;56.326;43.982;2023-06-04T09:54:42;100975.88;;;20.96;50.04
74678;BME280;67324;56.326;43.982;2023-06-04T09:57:17;100980.19;;;20.97;50.01
74678;BME280;67324;56.326;43.982;2023-06-04T09:59:48;100986.25;;;20.97;50.11
74678;BME280;67324;56.326;43.982;2023-06-04T10:02:18;100984.59;;;20.96;49.91
74678;BME280;67324;56.326;43.982;2023-06-04T10:04:44;100982.81;;;20.97;50.05
74678;BME280;67324;56.326;43.982;2023-06-04T10:07:14;100979.31;;;20.96;49.85
74678;BME280;67324;56.326;43.982;2023-06-04T10:09:42;100978.50;;;20.96;49.93
74678;BME280;67324;56.326;43.982;2023-06-04T10:12:13;100987.22;;;20.96;50.00
74678;BME280;67324;56.326;43.982;2023-06-04T10:14:41;100991.66;;;20.96;49.90
74678;BME280;67324;56.326;43.982;2023-06-04T10:17:09;100997.75;;;20.96;49.89
74678;BME280;67324;56.326;43.982;2023-06-04T10:19:36;100996.91;;;20.96;49.84
74678;BME280;67324;56.326;43.982;2023-06-04T10:22:03;100995.09;;;20.96;49.93
74678;BME280;67324;56.326;43.982;2023-06-04T10:24:30;100987.22;;;20.96;49.96
74678;BME280;67324;56.326;43.982;2023-06-04T10:26:59;100997.75;;;20.96;50.01
74678;BME280;67324;56.326;43.982;2023-06-04T10:29:26;100991.66;;;20.96;50.04
74678;BME280;67324;56.326;43.982;2023-06-04T10:31:55;100998.72;;;20.95;50.02
74678;BME280;67324;56.326;43.982;2023-06-04T10:34:20;100998.72;;;20.95;50.01
74678;BME280;67324;56.326;43.982;2023-06-04T10:36:46;100995.97;;;20.97;49.91
74678;BME280;67324;56.326;43.982;2023-06-04T10:39:12;101000.38;;;20.96;49.89
74678;BME280;67324;56.326;43.982;2023-06-04T10:41:38;101003.00;;;20.96;50.01
74678;BME280;67324;56.326;43.982;2023-06-04T10:44:04;100997.75;;;20.96;49.90
74678;BME280;67324;56.326;43.982;2023-06-04T10:46:39;100995.09;;;20.96;49.92
74678;BME280;67324;56.326;43.982;2023-06-04T10:49:06;100997.75;;;20.96;49.98
74678;BME280;67324;56.326;43.982;2023-06-04T10:51:32;100995.09;;;20.96;49.85
74678;BME280;67324;56.326;43.982;2023-06-04T10:53:58;100995.25;;;20.95;50.02
74678;BME280;67324;56.326;43.982;2023-06-04T10:56:28;100983.75;;;20.96;49.90
74678;BME280;67324;56.326;43.982;2023-06-04T10:58:54;100984.59;;;20.96;50.01
74678;BME280;67324;56.326;43.982;2023-06-04T11:01:27;100990.00;;;20.95;49.94
74678;BME280;67324;56.326;43.982;2023-06-04T11:03:54;100995.09;;;20.96;49.92
74678;BME280;67324;56.326;43.982;2023-06-04T11:06:19;101000.38;;;20.96;49.91
74678;BME280;67324;56.326;43.982;2023-06-04T11:08:46;100999.53;;;20.96;49.95
74678;BME280;67324;56.326;43.982;2023-06-04T11:11:15;101005.63;;;20.96;49.77
74678;BME280;67324;56.326;43.982;2023-06-04T11:13:41;101007.44;;;20.96;49.92
74678;BME280;67324;56.326;43.982;2023-06-04T11:19:01;101004.81;;;20.96;49.94
74678;BME280;67324;56.326;43.982;2023-06-04T11:21:27;101009.13;;;20.97;49.96
74678;BME280;67324;56.326;43.982;2023-06-04T11:23:59;101015.31;;;20.96;49.99
74678;BME280;67324;56.326;43.982;2023-06-04T11:26:44;101008.25;;;20.96;49.93
74678;BME280;67324;56.326;43.982;2023-06-04T11:29:12;101010.88;;;20.96;49.88
74678;BME280;67324;56.326;43.982;2023-06-04T11:31:45;101010.88;;;20.96;49.94
74678;BME280;67324;56.326;43.982;2023-06-04T11:34:11;101020.44;;;20.97;49.86
74678;BME280;67324;56.326;43.982;2023-06-04T11:36:47;101012.56;;;20.97;49.82
74678;BME280;67324;56.326;43.982;2023-06-04T11:39:15;101010.06;;;20.96;49.85
74678;BME280;67324;56.326;43.982;2023-06-04T11:41:40;101009.25;;;20.95;49.81
74678;BME280;67324;56.326;43.982;2023-06-04T11:44:07;101026.66;;;20.96;49.80
74678;BME280;67324;56.326;43.982;2023-06-04T11:46:43;101014.50;;;20.95;49.87
74678;BME280;67324;56.326;43.982;2023-06-04T11:49:16;101021.28;;;20.98;49.91
74678;BME280;67324;56.326;43.982;2023-06-04T11:51:48;101012.56;;;20.97;49.88
74678;BME280;67324;56.326;43.982;2023-06-04T11:54:15;101015.19;;;20.97;49.89
74678;BME280;67324;56.326;43.982;2023-06-04T11:56:41;101007.44;;;20.96;49.80
74678;BME280;67324;56.326;43.982;2023-06-04T11:59:09;101016.16;;;20.96;49.81
74678;BME280;67324;56.326;43.982;2023-06-04T12:01:45;101018.66;;;20.98;49.74
74678;BME280;67324;56.326;43.982;2023-06-04T12:04:17;101023.09;;;20.97;49.86
74678;BME280;67324;56.326;43.982;2023-06-04T12:07:01;101022.25;;;20.97;49.92
74678;BME280;67324;56.326;43.982;2023-06-04T12:09:30;101030.97;;;20.97;49.90
74678;BME280;67324;56.326;43.982;2023-06-04T12:11:58;101026.66;;;20.96;49.79
74678;BME280;67324;56.326;43.982;2023-06-04T12:14:24;101034.56;;;20.96;49.83
74678;BME280;67324;56.326;43.982;2023-06-04T12:16:59;101032.78;;;20.97;49.82
74678;BME280;67324;56.326;43.982;2023-06-04T12:19:25;101032.78;;;20.97;49.77
74678;BME280;67324;56.326;43.982;2023-06-04T12:22:04;101024.88;;;20.97;49.70
74678;BME280;67324;56.326;43.982;2023-06-04T12:24:31;101034.44;;;20.98;49.90
74678;BME280;67324;56.326;43.982;2023-06-04T12:27:01;101027.53;;;20.97;49.67
74678;BME280;67324;56.326;43.982;2023-06-04T12:29:27;101027.53;;;20.97;49.88
74678;BME280;67324;56.326;43.982;2023-06-04T12:32:12;101040.66;;;20.97;49.75
74678;BME280;67324;56.326;43.982;2023-06-04T12:34:38;101040.66;;;20.97;49.73
74678;BME280;67324;56.326;43.982;2023-06-04T12:37:04;101038.03;;;20.97;49.72
74678;BME280;67324;56.326;43.982;2023-06-04T12:39:33;101040.66;;;20.97;49.76
74678;BME280;67324;56.326;43.982;2023-06-04T12:41:59;101038.03;;;20.97;49.74
74678;BME280;67324;56.326;43.982;2023-06-04T12:44:25;101039.81;;;20.96;49.71
74678;BME280;67324;56.326;43.982;2023-06-04T12:46:51;101028.34;;;20.97;49.88
74678;BME280;67324;56.326;43.982;2023-06-04T12:49:16;101027.53;;;20.97;49.84
74678;BME280;67324;56.326;43.982;2023-06-04T12:51:42;101034.56;;;20.96;49.77
74678;BME280;67324;56.326;43.982;2023-06-04T12:54:09;101035.41;;;20.97;49.83